Time;durP1;ratioP1;P1;durP2;ratioP2;P2;SDS_P1;SDS_P2;PMS_P1;PMS_P2;Temp;Humidity;BMP_temperature;BMP_pressure;BME280_temperature;BME280_humidity;BME280_pressure;Samples;Min_cycle;Max_cycle;Signal;HPM_P1;HPM_P2
2023/04/30 00:01:06;;;;;;;12.40;7.10;;;;;;;7.42;100.00;99818.06;106839;1276;23115;-76
2023/04/30 00:03:34;;;;;;;14.40;7.00;;;;;;;7.40;100.00;99819.29;106822;1276;22563;-76
2023/04/30 00:06:01;;;;;;;13.90;6.70;;;;;;;7.39;100.00;99807.79;106827;1276;22766;-76
2023/04/30 00:08:29;;;;;;;13.40;7.60;;;;;;;7.37;100.00;99811.74;106834;1276;24261;-76
2023/04/30 00:10:56;;;;;;;13.40;7.40;;;;;;;7.35;100.00;99812.07;106814;1276;22527;-76
2023/04/30 00:13:23;;;;;;;11.10;6.60;;;;;;;7.33;100.00;99809.12;106836;1276;25266;-76
2023/04/30 00:15:51;;;;;;;13.40;6.90;;;;;;;7.31;100.00;99809.34;106801;1276;22586;-76
2023/04/30 00:18:18;;;;;;;13.60;7.40;;;;;;;7.30;100.00;99812.69;106802;1276;22636;-76
2023/04/30 00:20:45;;;;;;;15.30;7.90;;;;;;;7.27;100.00;99805.98;106828;1276;24265;-75
2023/04/30 00:23:12;;;;;;;14.20;7.50;;;;;;;7.26;100.00;99796.92;106818;1276;22534;-76
2023/04/30 00:25:40;;;;;;;13.90;7.90;;;;;;;7.23;100.00;99787.70;106829;1276;22528;-76
2023/04/30 00:28:07;;;;;;;14.60;7.50;;;;;;;7.20;100.00;99781.52;106838;1276;24234;-77
2023/04/30 00:30:34;;;;;;;14.10;7.40;;;;;;;7.19;100.00;99785.06;106826;1276;26516;-76
2023/04/30 00:33:01;;;;;;;14.70;7.80;;;;;;;7.17;100.00;99776.60;106837;1276;25395;-77
2023/04/30 00:35:29;;;;;;;16.20;8.50;;;;;;;7.16;100.00;99773.38;106985;1276;24986;-77
2023/04/30 00:37:56;;;;;;;15.00;8.40;;;;;;;7.15;100.00;99776.27;106827;1276;22529;-76
2023/04/30 00:40:24;;;;;;;13.30;7.30;;;;;;;7.16;100.00;99779.64;106864;1276;22552;-77
2023/04/30 00:42:54;;;;;;;12.80;7.30;;;;;;;7.15;100.00;99776.98;106826;1272;22542;-77
2023/04/30 00:45:22;;;;;;;13.90;7.30;;;;;;;7.15;100.00;99776.28;106806;1277;25310;-77
2023/04/30 00:47:49;;;;;;;13.50;7.10;;;;;;;7.15;100.00;99783.10;106805;1277;22527;-77
2023/04/30 00:50:17;;;;;;;12.90;6.80;;;;;;;7.16;100.00;99788.95;106753;1277;25501;-76
2023/04/30 00:52:44;;;;;;;11.50;6.80;;;;;;;7.16;100.00;99790.48;106758;1277;22517;-77
2023/04/30 00:55:11;;;;;;;11.20;6.20;;;;;;;7.17;100.00;99793.26;106765;1277;22533;-76
2023/04/30 00:57:39;;;;;;;9.90;5.90;;;;;;;7.18;100.00;99792.33;106807;1276;25406;-77
2023/04/30 01:00:09;;;;;;;12.00;6.10;;;;;;;7.19;100.00;99794.36;106757;1277;23890;-77
2023/04/30 01:02:37;;;;;;;11.20;6.60;;;;;;;7.20;100.00;99796.02;106765;1277;25462;-76
2023/04/30 01:05:05;;;;;;;13.80;7.20;;;;;;;7.19;100.00;99795.94;106773;1277;22524;-77
2023/04/30 01:07:34;;;;;;;10.20;6.10;;;;;;;7.19;100.00;99795.42;106804;1276;23267;-76
2023/04/30 01:10:01;;;;;;;13.80;6.70;;;;;;;7.17;100.00;99792.56;106816;1276;24299;-77
2023/04/30 01:12:53;;;;;;;13.20;7.20;;;;;;;7.17;100.00;99794.06;106786;1276;25246;-77
2023/04/30 01:15:23;;;;;;;13.00;7.10;;;;;;;7.15;100.00;99801.72;106825;1276;22628;-77
2023/04/30 01:17:56;;;;;;;10.70;6.30;;;;;;;7.13;100.00;99800.02;106846;1276;23337;-77
2023/04/30 01:20:23;;;;;;;10.80;6.10;;;;;;;7.12;100.00;99797.21;106831;1276;22539;-76
2023/04/30 01:23:11;;;;;;;13.20;7.50;;;;;;;7.12;100.00;99796.91;106791;1276;22642;-76
2023/04/30 01:26:09;;;;;;;8.90;6.10;;;;;;;7.09;100.00;99792.38;106826;1276;23278;-78
2023/04/30 01:28:37;;;;;;;13.20;6.90;;;;;;;7.06;100.00;99788.55;106803;1276;24926;-78
2023/04/30 01:31:11;;;;;;;14.00;6.60;;;;;;;7.04;100.00;99787.63;106797;1276;22785;-78
2023/04/30 01:33:39;;;;;;;10.30;6.00;;;;;;;7.03;100.00;99785.23;106908;1276;25526;-78
2023/04/30 01:36:21;;;;;;;11.50;6.40;;;;;;;7.01;100.00;99781.08;106819;1276;25372;-78
2023/04/30 01:39:04;;;;;;;11.70;6.50;;;;;;;7.00;100.00;99778.02;106804;1276;22629;-77
2023/04/30 01:41:34;;;;;;;;;;;;;;;6.98;100.00;99779.45;106824;1276;25412;-77
2023/04/30 01:44:07;;;;;;;13.80;6.80;;;;;;;6.98;100.00;99785.73;106763;1276;23756;-77
2023/04/30 01:46:34;;;;;;;11.00;5.90;;;;;;;6.98;100.00;99782.70;106733;1276;22535;-78
2023/04/30 01:49:22;;;;;;;11.40;6.00;;;;;;;6.96;100.00;99781.98;106546;1276;23115;-77
2023/04/30 01:51:54;;;;;;;9.90;6.20;;;;;;;6.95;100.00;99780.33;106441;1276;22534;-78
2023/04/30 01:54:29;;;;;;;10.80;6.30;;;;;;;6.96;100.00;99778.80;106647;1276;22567;-77
2023/04/30 01:57:21;;;;;;;11.20;6.20;;;;;;;6.95;100.00;99772.00;106653;1272;25291;-76
2023/04/30 01:59:48;;;;;;;9.50;5.70;;;;;;;6.96;100.00;99773.06;106808;1275;24406;-78
2023/04/30 02:02:16;;;;;;;9.70;5.70;;;;;;;6.96;100.00;99775.20;106976;1275;22524;-77
2023/04/30 02:04:43;;;;;;;9.60;5.50;;;;;;;6.95;100.00;99771.70;106813;1276;24346;-77
2023/04/30 02:07:11;;;;;;;9.30;5.60;;;;;;;6.96;100.00;99772.48;106800;1275;24336;-78
2023/04/30 02:09:38;;;;;;;9.60;6.20;;;;;;;6.97;100.00;99772.75;106742;1275;24248;-77
2023/04/30 02:12:06;;;;;;;9.80;5.60;;;;;;;6.97;100.00;99774.50;106842;1276;22635;-77
2023/04/30 02:14:33;;;;;;;10.70;6.30;;;;;;;6.95;100.00;99780.06;106855;1276;25335;-78
2023/04/30 02:17:01;;;;;;;8.60;5.90;;;;;;;6.94;100.00;99782.70;106842;1276;22529;-77
2023/04/30 02:19:28;;;;;;;10.40;6.10;;;;;;;6.93;100.00;99785.48;106812;1275;24486;-78
2023/04/30 02:21:55;;;;;;;9.90;5.40;;;;;;;6.93;100.00;99793.42;106810;1275;22527;-78
2023/04/30 02:24:23;;;;;;;7.70;5.40;;;;;;;6.93;100.00;99795.39;106838;1275;24679;-78
2023/04/30 02:26:50;;;;;;;8.40;5.40;;;;;;;6.93;100.00;99799.15;106749;1275;24275;-78
2023/04/30 02:29:17;;;;;;;8.60;5.40;;;;;;;6.95;100.00;99803.95;106792;1269;22595;-77
2023/04/30 02:31:45;;;;;;;8.50;5.30;;;;;;;6.97;100.00;99804.50;106774;1275;24307;-78
2023/04/30 02:34:12;;;;;;;8.30;5.20;;;;;;;6.97;100.00;99806.25;106817;1275;24034;-78
2023/04/30 02:36:39;;;;;;;6.80;4.80;;;;;;;6.96;100.00;99805.41;106822;1264;22520;-78
2023/04/30 02:39:07;;;;;;;7.60;5.10;;;;;;;6.96;100.00;99803.70;106890;1275;23742;-78
2023/04/30 02:41:35;;;;;;;6.20;4.50;;;;;;;6.96;100.00;99802.08;106817;1275;24248;-77
2023/04/30 02:44:03;;;;;;;8.90;5.30;;;;;;;6.94;100.00;99805.79;106823;1275;24229;-77
2023/04/30 02:46:30;;;;;;;8.40;5.40;;;;;;;6.94;100.00;99810.11;106967;1275;26548;-77
2023/04/30 02:48:57;;;;;;;8.70;5.60;;;;;;;6.92;100.00;99804.96;106815;1275;25354;-78
2023/04/30 02:51:25;;;;;;;9.20;5.40;;;;;;;6.88;100.00;99800.21;106828;1275;22533;-77
2023/04/30 02:53:52;;;;;;;7.60;5.20;;;;;;;6.85;100.00;99792.23;106810;1275;25310;-78
2023/04/30 02:56:20;;;;;;;9.50;5.30;;;;;;;6.84;100.00;99786.78;106790;1275;24284;-77
2023/04/30 02:58:47;;;;;;;7.30;4.90;;;;;;;6.83;100.00;99782.17;106815;1276;25249;-78
2023/04/30 03:01:14;;;;;;;10.40;6.00;;;;;;;6.82;100.00;99778.89;106831;1275;25545;-78
2023/04/30 03:03:42;;;;;;;7.50;5.50;;;;;;;6.80;100.00;99770.98;106827;1275;22518;-78
2023/04/30 03:06:09;;;;;;;11.20;6.40;;;;;;;6.79;100.00;99767.91;106862;1275;22904;-78
2023/04/30 03:08:36;;;;;;;9.40;6.30;;;;;;;6.78;100.00;99770.36;106800;1276;24218;-78
2023/04/30 03:11:04;;;;;;;10.30;6.20;;;;;;;6.76;100.00;99767.65;106779;1276;22527;-78
2023/04/30 03:13:32;;;;;;;12.00;6.60;;;;;;;6.75;100.00;99765.64;106836;1276;22527;-78
2023/04/30 03:15:59;;;;;;;9.00;6.00;;;;;;;6.76;100.00;99767.34;106827;1276;24222;-78
2023/04/30 03:18:27;;;;;;;11.30;5.90;;;;;;;6.76;100.00;99775.14;106826;1276;22519;-78
2023/04/30 03:20:55;;;;;;;9.40;6.00;;;;;;;6.78;100.00;99778.23;106811;1276;23689;-77
2023/04/30 03:23:23;;;;;;;12.90;6.90;;;;;;;6.80;100.00;99783.23;106842;1276;23303;-77
2023/04/30 03:25:50;;;;;;;9.50;5.70;;;;;;;6.80;100.00;99782.27;106960;1276;22525;-77
2023/04/30 03:28:17;;;;;;;13.70;7.50;;;;;;;6.81;100.00;99781.48;106821;1276;22778;-78
2023/04/30 03:30:45;;;;;;;9.40;6.60;;;;;;;6.82;100.00;99775.98;106795;1276;22474;-77
2023/04/30 03:33:12;;;;;;;9.20;5.70;;;;;;;6.82;100.00;99776.71;106797;1276;25367;-77
2023/04/30 03:35:40;;;;;;;14.90;7.80;;;;;;;6.82;100.00;99782.77;106800;1276;25482;-78
2023/04/30 03:38:07;;;;;;;13.20;6.80;;;;;;;6.83;100.00;99786.84;106844;1276;25369;-77
2023/04/30 03:40:35;;;;;;;11.00;6.20;;;;;;;6.84;100.00;99784.23;106810;1276;26028;-77
2023/04/30 03:43:02;;;;;;;10.80;6.40;;;;;;;6.86;100.00;99791.02;106825;1276;25365;-77
2023/04/30 03:45:30;;;;;;;12.50;6.10;;;;;;;6.88;100.00;99786.23;106798;1276;22520;-77
2023/04/30 03:47:57;;;;;;;9.70;6.10;;;;;;;6.89;100.00;99782.32;106785;1276;22550;-76
2023/04/30 03:50:24;;;;;;;10.80;6.20;;;;;;;6.90;100.00;99780.32;106795;1276;25534;-77
2023/04/30 03:52:52;;;;;;;8.80;5.70;;;;;;;6.89;100.00;99778.61;106806;1276;24237;-77
2023/04/30 03:55:19;;;;;;;11.30;6.00;;;;;;;6.90;100.00;99775.64;106835;1276;25103;-77
2023/04/30 03:57:46;;;;;;;9.30;5.70;;;;;;;6.90;100.00;99768.23;106852;1276;25542;-77
2023/04/30 04:00:14;;;;;;;8.70;5.50;;;;;;;6.89;100.00;99765.48;106810;1276;23981;-77
2023/04/30 04:02:44;;;;;;;10.30;6.20;;;;;;;6.88;100.00;99760.01;106797;1276;22605;-77
2023/04/30 04:05:11;;;;;;;10.50;6.10;;;;;;;6.89;100.00;99755.10;106812;1276;24400;-77
2023/04/30 04:07:38;;;;;;;8.60;5.60;;;;;;;6.90;100.00;99754.65;106808;1276;23868;-77
2023/04/30 04:10:06;;;;;;;11.80;6.30;;;;;;;6.92;100.00;99751.77;106812;1276;22520;-78
2023/04/30 04:12:34;;;;;;;9.90;6.10;;;;;;;6.93;100.00;99751.11;106827;1276;26509;-78
2023/04/30 04:15:01;;;;;;;8.50;5.50;;;;;;;6.95;100.00;99745.89;106832;1276;24179;-77
2023/04/30 04:17:29;;;;;;;8.40;5.80;;;;;;;6.96;100.00;99740.36;106840;1276;23014;-77
2023/04/30 04:19:56;;;;;;;8.50;5.40;;;;;;;7.00;100.00;99740.31;106834;1276;24387;-77
2023/04/30 04:22:24;;;;;;;9.10;5.60;;;;;;;7.04;100.00;99741.55;106829;1276;22527;-77
2023/04/30 04:24:53;;;;;;;10.70;5.80;;;;;;;7.04;100.00;99739.38;106966;1276;22519;-77
2023/04/30 04:27:21;;;;;;;8.50;5.30;;;;;;;7.05;100.00;99737.17;106856;1276;22540;-77
2023/04/30 04:29:49;;;;;;;8.60;5.50;;;;;;;7.07;100.00;99740.27;106818;1276;22533;-77
2023/04/30 04:32:16;;;;;;;9.60;5.90;;;;;;;7.07;100.00;99749.65;106824;1276;22743;-77
2023/04/30 04:34:44;;;;;;;9.60;5.50;;;;;;;7.10;100.00;99754.27;106814;1276;22728;-77
2023/04/30 04:37:12;;;;;;;9.00;5.20;;;;;;;7.12;100.00;99756.91;106830;1276;24402;-77
2023/04/30 04:39:39;;;;;;;10.90;5.30;;;;;;;7.15;100.00;99758.95;106846;1276;25392;-77
2023/04/30 04:42:07;;;;;;;8.00;5.20;;;;;;;7.17;100.00;99756.73;106803;1276;24554;-78
2023/04/30 04:44:35;;;;;;;6.80;4.80;;;;;;;7.18;100.00;99758.04;106797;1276;22526;-77
2023/04/30 04:47:03;;;;;;;7.50;4.70;;;;;;;7.17;100.00;99756.87;106839;1276;25288;-77
2023/04/30 04:49:30;;;;;;;7.10;4.80;;;;;;;7.19;100.00;99751.53;106800;1276;25354;-78
2023/04/30 04:51:57;;;;;;;7.70;4.80;;;;;;;7.21;100.00;99755.64;106806;1276;23100;-79
2023/04/30 04:54:24;;;;;;;5.80;4.70;;;;;;;7.22;100.00;99757.30;106830;1276;22710;-78
2023/04/30 04:56:52;;;;;;;7.20;5.20;;;;;;;7.26;100.00;99751.06;106794;1276;24291;-78
2023/04/30 04:59:19;;;;;;;8.30;4.90;;;;;;;7.29;100.00;99748.52;106790;1276;22528;-78
2023/04/30 05:01:47;;;;;;;8.60;4.90;;;;;;;7.33;100.00;99745.75;106834;1276;22520;-78
2023/04/30 05:04:14;;;;;;;8.20;4.80;;;;;;;7.38;100.00;99741.74;106838;1276;25360;-79
2023/04/30 05:06:43;;;;;;;6.60;4.70;;;;;;;7.39;100.00;99743.53;106848;1275;22516;-78
2023/04/30 05:09:11;;;;;;;6.70;4.90;;;;;;;7.41;100.00;99745.16;106855;1275;25252;-79
2023/04/30 05:11:40;;;;;;;5.50;4.20;;;;;;;7.45;100.00;99746.56;106831;1275;24570;-78
2023/04/30 05:14:07;;;;;;;6.80;4.40;;;;;;;7.50;100.00;99752.17;106848;1275;22539;-78
2023/04/30 05:16:34;;;;;;;5.60;4.10;;;;;;;7.54;100.00;99752.65;106850;1275;25350;-79
2023/04/30 05:19:02;;;;;;;5.70;4.00;;;;;;;7.59;100.00;99748.70;106846;1275;23720;-79
2023/04/30 05:21:30;;;;;;;6.10;4.10;;;;;;;7.64;100.00;99750.89;106832;1275;26598;-78
2023/04/30 05:23:58;;;;;;;6.40;4.30;;;;;;;7.67;100.00;99757.98;106851;1275;25252;-80
2023/04/30 05:26:25;;;;;;;8.40;4.50;;;;;;;7.69;100.00;99754.79;106853;1275;24476;-80
2023/04/30 05:28:52;;;;;;;6.20;4.40;;;;;;;7.72;100.00;99760.08;106878;1275;22570;-78
2023/04/30 05:31:20;;;;;;;8.40;4.30;;;;;;;7.72;100.00;99760.39;106826;1275;22531;-79
2023/04/30 05:33:47;;;;;;;7.20;4.30;;;;;;;7.71;100.00;99759.48;106837;1263;22517;-78
2023/04/30 05:36:15;;;;;;;6.80;4.30;;;;;;;7.72;100.00;99758.84;106870;1275;24269;-79
2023/04/30 05:38:42;;;;;;;6.90;4.70;;;;;;;7.74;100.00;99758.31;106793;1275;25249;-79
2023/04/30 05:41:11;;;;;;;6.50;4.30;;;;;;;7.73;100.00;99757.24;106820;1275;22552;-78
2023/04/30 05:43:38;;;;;;;4.80;3.60;;;;;;;7.73;100.00;99754.30;106828;1275;24258;-78
2023/04/30 05:46:05;;;;;;;5.40;3.60;;;;;;;7.71;100.00;99756.58;106835;1275;22463;-78
2023/04/30 05:48:33;;;;;;;4.90;3.70;;;;;;;7.73;100.00;99749.16;106839;1275;22547;-78
2023/04/30 05:51:00;;;;;;;4.90;3.70;;;;;;;7.74;100.00;99745.56;106822;1275;22624;-78
2023/04/30 05:53:27;;;;;;;6.40;4.00;;;;;;;7.74;100.00;99735.63;106822;1275;25522;-78
2023/04/30 05:55:55;;;;;;;4.80;3.80;;;;;;;7.77;100.00;99733.73;106862;1270;24222;-79
2023/04/30 05:58:22;;;;;;;5.40;3.90;;;;;;;7.79;100.00;99728.29;106848;1276;25372;-78
2023/04/30 06:00:50;;;;;;;7.00;3.70;;;;;;;7.84;100.00;99724.92;106946;1275;22534;-79
2023/04/30 06:03:18;;;;;;;6.00;3.70;;;;;;;7.88;100.00;99719.96;106937;1275;25272;-78
2023/04/30 06:05:46;;;;;;;4.60;3.70;;;;;;;7.92;100.00;99710.59;106892;1275;25727;-78
2023/04/30 06:08:13;;;;;;;6.00;4.20;;;;;;;7.94;100.00;99706.66;106797;1275;22525;-78
2023/04/30 06:10:41;;;;;;;5.60;4.10;;;;;;;7.95;100.00;99700.39;106872;1275;22536;-80
2023/04/30 06:13:08;;;;;;;6.30;4.30;;;;;;;7.97;100.00;99694.79;106697;1275;186741;-78
2023/04/30 06:15:35;;;;;;;6.20;4.20;;;;;;;8.00;100.00;99687.70;106817;1275;23030;-78
2023/04/30 06:18:03;;;;;;;7.70;4.40;;;;;;;8.04;100.00;99678.36;106864;1275;22617;-79
2023/04/30 06:20:30;;;;;;;7.80;4.60;;;;;;;8.05;100.00;99668.84;106818;1275;22633;-78
2023/04/30 06:22:58;;;;;;;6.10;4.30;;;;;;;8.07;100.00;99657.29;106955;1275;22540;-78
2023/04/30 06:25:26;;;;;;;7.20;4.80;;;;;;;8.09;100.00;99647.59;106826;1275;22541;-78
2023/04/30 06:27:53;;;;;;;9.50;5.10;;;;;;;8.13;100.00;99640.73;106830;1275;22583;-78
2023/04/30 06:30:20;;;;;;;7.90;4.60;;;;;;;8.17;100.00;99630.79;106832;1275;22536;-79
2023/04/30 06:32:47;;;;;;;6.10;4.10;;;;;;;8.19;100.00;99625.14;106849;1275;22566;-78
2023/04/30 06:35:15;;;;;;;6.70;4.30;;;;;;;8.25;100.00;99619.88;106833;1275;22546;-78
2023/04/30 06:37:42;;;;;;;8.00;4.50;;;;;;;8.34;100.00;99616.56;106788;1275;22520;-79
2023/04/30 06:40:10;;;;;;;6.00;4.30;;;;;;;8.43;100.00;99611.48;106827;1275;25382;-79
2023/04/30 06:42:37;;;;;;;6.00;4.00;;;;;;;8.46;100.00;99602.36;106832;1275;22532;-79
2023/04/30 06:45:05;;;;;;;7.30;4.10;;;;;;;8.47;100.00;99599.00;106843;1275;25382;-79
2023/04/30 06:47:33;;;;;;;5.10;4.20;;;;;;;8.49;100.00;99598.20;106833;1275;22971;-78
2023/04/30 06:50:01;;;;;;;12.20;6.80;;;;;;;8.49;100.00;99589.50;106842;1275;22603;-79
2023/04/30 06:52:29;;;;;;;20.70;15.00;;;;;;;8.48;100.00;99580.20;106881;1275;22528;-79
2023/04/30 06:54:56;;;;;;;15.40;10.50;;;;;;;8.46;100.00;99575.35;106915;1275;24284;-80
2023/04/30 06:57:24;;;;;;;13.90;7.60;;;;;;;8.44;100.00;99566.71;106840;1275;25382;-78
2023/04/30 06:59:52;;;;;;;9.90;5.60;;;;;;;8.41;100.00;99559.27;106811;1275;24349;-79
2023/04/30 07:02:21;;;;;;;6.30;4.00;;;;;;;8.39;100.00;99543.46;106886;1275;24254;-78
2023/04/30 07:04:48;;;;;;;11.40;6.00;;;;;;;8.41;100.00;99529.80;106798;1275;22527;-78
2023/04/30 07:07:15;;;;;;;15.20;8.30;;;;;;;8.46;100.00;99525.67;106835;1275;22675;-78
2023/04/30 07:09:43;;;;;;;10.30;5.50;;;;;;;8.51;100.00;99516.98;106828;1275;22598;-78
2023/04/30 07:12:12;;;;;;;6.40;4.40;;;;;;;8.59;100.00;99519.06;106820;1275;24595;-78
2023/04/30 07:14:39;;;;;;;5.20;3.90;;;;;;;8.64;100.00;99510.92;106876;1275;22517;-78
2023/04/30 07:17:07;;;;;;;5.70;4.20;;;;;;;8.69;100.00;99507.45;106833;1275;25501;-79
2023/04/30 07:19:34;;;;;;;5.60;3.50;;;;;;;8.69;100.00;99507.65;106816;1275;25388;-79
2023/04/30 07:22:01;;;;;;;7.00;4.40;;;;;;;8.63;100.00;99504.56;106866;1275;25300;-79
2023/04/30 07:24:29;;;;;;;9.80;6.10;;;;;;;8.60;100.00;99500.55;106838;1275;22611;-80
2023/04/30 07:26:57;;;;;;;12.70;6.20;;;;;;;8.61;100.00;99499.71;106861;1275;22523;-78
2023/04/30 07:29:25;;;;;;;9.80;5.90;;;;;;;8.63;100.00;99492.91;106872;1275;22517;-78
2023/04/30 07:31:52;;;;;;;12.50;7.10;;;;;;;8.64;100.00;99487.39;106811;1275;25254;-79
2023/04/30 07:34:19;;;;;;;13.70;8.00;;;;;;;8.67;100.00;99485.63;106809;1275;25366;-78
2023/04/30 07:36:47;;;;;;;12.60;7.60;;;;;;;8.68;100.00;99483.64;106825;1275;22578;-78
2023/04/30 07:39:14;;;;;;;13.50;7.60;;;;;;;8.72;100.00;99478.16;106836;1269;22555;-79
2023/04/30 07:41:42;;;;;;;15.20;8.90;;;;;;;8.78;100.00;99477.03;106808;1275;25515;-79
2023/04/30 07:44:10;;;;;;;11.60;7.00;;;;;;;8.83;100.00;99482.17;106842;1254;24274;-78
2023/04/30 07:46:38;;;;;;;12.00;7.50;;;;;;;8.86;100.00;99491.70;106819;1275;25360;-79
2023/04/30 07:49:05;;;;;;;8.40;4.90;;;;;;;8.86;100.00;99492.04;106845;1275;22736;-80
2023/04/30 07:51:32;;;;;;;7.50;4.90;;;;;;;8.82;100.00;99487.09;106813;1275;22992;-77
2023/04/30 07:54:00;;;;;;;5.70;4.30;;;;;;;8.79;100.00;99500.41;106840;1275;24249;-79
2023/04/30 07:56:27;;;;;;;6.00;4.70;;;;;;;8.77;100.00;99503.73;106796;1273;25354;-79
2023/04/30 07:58:54;;;;;;;7.20;4.70;;;;;;;8.77;100.00;99500.08;106841;1276;22527;-79
2023/04/30 08:01:22;;;;;;;10.20;5.50;;;;;;;8.80;100.00;99493.46;106898;1275;22675;-80
2023/04/30 08:03:49;;;;;;;14.10;7.50;;;;;;;8.81;100.00;99491.54;106836;1275;24257;-78
2023/04/30 08:06:17;;;;;;;17.80;9.40;;;;;;;8.82;100.00;99493.09;106830;1275;22538;-80
2023/04/30 08:08:45;;;;;;;21.90;11.00;;;;;;;8.80;100.00;99488.45;106867;1275;22526;-79
2023/04/30 08:11:15;;;;;;;21.20;12.40;;;;;;;8.77;100.00;99485.23;106881;1275;22783;-80
2023/04/30 08:13:42;;;;;;;21.90;12.60;;;;;;;8.70;100.00;99478.60;106849;1275;25366;-79
2023/04/30 08:16:09;;;;;;;19.90;11.50;;;;;;;8.66;100.00;99471.69;106821;1275;25265;-80
2023/04/30 08:18:43;;;;;;;18.90;10.50;;;;;;;8.67;100.00;99470.09;106904;1275;22521;-79
2023/04/30 08:21:14;;;;;;;25.00;13.30;;;;;;;8.72;100.00;99464.58;106905;1275;22524;-80
2023/04/30 08:23:41;;;;;;;21.40;12.30;;;;;;;8.71;100.00;99463.23;106826;1275;25418;-79
2023/04/30 08:26:08;;;;;;;20.20;11.00;;;;;;;8.69;100.00;99462.21;106849;1275;22517;-78
2023/04/30 08:28:36;;;;;;;17.60;10.00;;;;;;;8.69;100.00;99460.95;106834;1275;24295;-77
2023/04/30 08:31:03;;;;;;;16.70;9.40;;;;;;;8.72;100.00;99460.17;106849;1275;25381;-80
2023/04/30 08:33:30;;;;;;;20.70;10.40;;;;;;;8.76;100.00;99457.55;106906;1275;25376;-80
2023/04/30 08:35:58;;;;;;;19.90;11.20;;;;;;;8.81;100.00;99453.71;106829;1275;26483;-79
2023/04/30 08:38:27;;;;;;;20.30;10.50;;;;;;;8.80;100.00;99453.28;106841;1275;22538;-79
2023/04/30 08:41:14;;;;;;;23.20;11.70;;;;;;;8.83;100.00;99452.18;106831;1275;22621;-79
2023/04/30 08:43:43;;;;;;;23.80;12.70;;;;;;;8.88;100.00;99457.19;106952;1275;26513;-79
2023/04/30 08:46:15;;;;;;;24.30;13.10;;;;;;;8.89;100.00;99461.73;106879;1275;22609;-79
2023/04/30 08:48:43;;;;;;;26.90;14.40;;;;;;;8.89;100.00;99470.30;106871;1275;22760;-79
2023/04/30 08:51:10;;;;;;;25.70;13.80;;;;;;;8.90;100.00;99477.66;106819;1275;22524;-79
2023/04/30 08:53:38;;;;;;;25.50;13.50;;;;;;;8.92;100.00;99482.99;106852;1275;22538;-79
2023/04/30 08:56:05;;;;;;;19.80;10.90;;;;;;;8.95;100.00;99486.20;106788;1276;22532;-80
2023/04/30 08:58:32;;;;;;;21.60;10.70;;;;;;;8.93;100.00;99485.31;106803;1276;22528;-79
2023/04/30 09:01:00;;;;;;;22.50;12.50;;;;;;;8.93;100.00;99487.34;106841;1275;24232;-79
2023/04/30 09:03:27;;;;;;;21.10;11.60;;;;;;;8.95;100.00;99489.08;106827;1275;22718;-79
2023/04/30 09:05:55;;;;;;;20.80;9.40;;;;;;;8.98;100.00;99493.11;106812;1275;24410;-79
2023/04/30 09:08:43;;;;;;;19.80;9.40;;;;;;;8.98;100.00;99494.12;106845;1275;22968;-78
2023/04/30 09:11:26;;;;;;;10.40;6.10;;;;;;;8.97;100.00;99492.89;106706;1276;25300;-80
2023/04/30 09:13:54;;;;;;;;;;;;;;;8.89;100.00;99495.67;106846;1276;22516;-78
2023/04/30 09:16:22;;;;;;;12.30;5.70;;;;;;;8.86;100.00;99498.41;106846;1276;23855;-80
2023/04/30 09:18:49;;;;;;;8.60;5.50;;;;;;;8.80;100.00;99507.46;106827;1276;22530;-80
2023/04/30 09:21:31;;;;;;;12.40;5.90;;;;;;;8.78;100.00;99508.98;106808;1276;25469;-80
2023/04/30 09:24:00;;;;;;;10.80;6.10;;;;;;;8.83;100.00;99505.73;106813;1276;25353;-79
2023/04/30 09:26:33;;;;;;;10.80;6.30;;;;;;;8.86;100.00;99505.52;106821;1254;25587;-79
2023/04/30 09:29:06;;;;;;;9.30;5.40;;;;;;;8.89;100.00;99502.48;106886;1276;22541;-80
2023/04/30 09:31:35;;;;;;;11.30;5.50;;;;;;;8.87;100.00;99503.86;106876;1276;22760;-79
2023/04/30 09:34:03;;;;;;;9.10;5.00;;;;;;;8.81;100.00;99502.53;106851;1276;25768;-79
2023/04/30 09:36:30;;;;;;;10.00;5.60;;;;;;;8.76;100.00;99506.86;106826;1276;22540;-81
2023/04/30 09:39:07;;;;;;;11.90;5.50;;;;;;;8.75;100.00;99514.67;106850;1272;22524;-79
2023/04/30 09:41:38;;;;;;;11.50;5.00;;;;;;;8.73;100.00;99513.23;106849;1276;22954;-81
2023/04/30 09:44:05;;;;;;;9.40;4.70;;;;;;;8.73;100.00;99521.39;106866;1276;22727;-79
2023/04/30 09:46:36;;;;;;;8.50;5.20;;;;;;;8.74;100.00;99524.86;106807;1276;25424;-79
2023/04/30 09:49:05;;;;;;;9.30;4.40;;;;;;;8.79;100.00;99530.23;106923;1276;22526;-80
2023/04/30 09:51:32;;;;;;;10.40;4.70;;;;;;;8.85;100.00;99531.03;106859;1276;22526;-81
2023/04/30 09:53:59;;;;;;;6.30;4.20;;;;;;;8.88;100.00;99535.30;106933;1276;24579;-80
2023/04/30 09:56:27;;;;;;;7.00;4.30;;;;;;;8.93;100.00;99536.27;106866;1275;25257;-80
2023/04/30 09:58:55;;;;;;;8.40;5.00;;;;;;;9.00;100.00;99540.86;106804;1276;22546;-79
2023/04/30 10:01:26;;;;;;;7.10;4.70;;;;;;;9.08;100.00;99543.58;106893;1276;24203;-80
2023/04/30 10:03:53;;;;;;;6.80;4.20;;;;;;;9.14;100.00;99542.30;106905;1276;22905;-79
2023/04/30 10:06:20;;;;;;;8.50;4.50;;;;;;;9.22;100.00;99546.46;106832;1276;22608;-80
2023/04/30 10:08:52;;;;;;;8.50;4.40;;;;;;;9.30;100.00;99552.19;106897;1276;24279;-79
2023/04/30 10:11:20;;;;;;;11.80;5.60;;;;;;;9.35;100.00;99548.80;107156;1276;24209;-79
2023/04/30 10:13:51;;;;;;;10.10;5.60;;;;;;;9.32;100.00;99548.40;106898;1276;25466;-80
2023/04/30 10:16:24;;;;;;;9.60;5.50;;;;;;;9.29;100.00;99543.86;107245;1276;22540;-80
2023/04/30 10:18:52;;;;;;;11.60;5.80;;;;;;;9.26;100.00;99542.70;107169;1276;22522;-81
2023/04/30 10:21:22;;;;;;;8.70;5.00;;;;;;;9.25;100.00;99540.21;107030;1276;22524;-80
2023/04/30 10:23:50;;;;;;;7.90;4.60;;;;;;;9.24;100.00;99544.09;106912;1276;24334;-80
2023/04/30 10:26:18;;;;;;;7.40;4.50;;;;;;;9.26;100.00;99546.84;106915;1276;23386;-79
2023/04/30 10:28:45;;;;;;;8.40;4.90;;;;;;;9.32;100.00;99550.77;107107;1276;25322;-79
2023/04/30 10:31:13;;;;;;;8.40;4.50;;;;;;;9.36;100.00;99557.85;107100;1276;24262;-80
2023/04/30 10:33:52;;;;;;;7.00;4.60;;;;;;;9.39;100.00;99556.58;107067;1275;22572;-80
2023/04/30 10:36:37;;;;;;;7.40;4.70;;;;;;;9.43;100.00;99547.83;107146;1276;24346;-81
2023/04/30 10:39:04;;;;;;;8.10;5.10;;;;;;;9.50;100.00;99542.52;106982;1276;25314;-81
2023/04/30 10:41:31;;;;;;;10.70;5.20;;;;;;;9.54;100.00;99542.65;107074;1276;22523;-80
2023/04/30 10:44:00;;;;;;;10.80;4.60;;;;;;;9.54;100.00;99541.40;107097;1276;25246;-80
2023/04/30 10:46:28;;;;;;;9.20;5.00;;;;;;;9.54;100.00;99546.55;107072;1276;25432;-79
2023/04/30 10:48:55;;;;;;;9.50;4.60;;;;;;;9.59;100.00;99552.54;107292;1276;24196;-82
2023/04/30 10:51:23;;;;;;;8.90;5.10;;;;;;;9.58;100.00;99557.64;106975;1276;25708;-81
2023/04/30 10:53:51;;;;;;;10.30;5.00;;;;;;;9.64;100.00;99557.73;106865;1276;24941;-81
2023/04/30 10:56:30;;;;;;;6.10;4.20;;;;;;;9.71;100.00;99552.91;106875;1276;22595;-81
2023/04/30 10:59:00;;;;;;;9.60;4.70;;;;;;;9.78;100.00;99556.61;106955;1276;25294;-80
2023/04/30 11:01:27;;;;;;;8.10;4.50;;;;;;;9.79;100.00;99555.23;107027;1276;25268;-79
2023/04/30 11:04:10;;;;;;;8.50;4.70;;;;;;;9.80;100.00;99558.60;107074;1276;22519;-79
2023/04/30 11:07:01;;;;;;;6.60;4.30;;;;;;;9.75;100.00;99554.64;107092;1276;25418;-79
2023/04/30 11:09:37;;;;;;;7.50;4.80;;;;;;;9.64;100.00;99554.24;107370;1276;26512;-79
2023/04/30 11:12:27;;;;;;;9.40;4.60;;;;;;;9.65;100.00;99558.61;107266;1276;25421;-80
2023/04/30 11:15:00;;;;;;;7.40;4.70;;;;;;;9.70;100.00;99559.19;107210;1276;22635;-80
2023/04/30 11:17:28;;;;;;;8.40;4.70;;;;;;;9.73;100.00;99565.63;107367;1272;23047;-79
2023/04/30 11:19:59;;;;;;;7.50;4.30;;;;;;;9.77;100.00;99571.71;106839;1276;22526;-79
2023/04/30 11:22:28;;;;;;;8.30;4.40;;;;;;;9.87;100.00;99569.98;106879;1276;25245;-79
2023/04/30 11:24:59;;;;;;;8.00;4.30;;;;;;;10.02;100.00;99571.48;106923;1276;22526;-80
2023/04/30 11:27:31;;;;;;;8.90;4.10;;;;;;;10.09;100.00;99569.63;106871;1276;22523;-79
2023/04/30 11:29:59;;;;;;;8.20;4.80;;;;;;;10.00;100.00;99572.11;106995;1276;24232;-80